Time;durP1;ratioP1;P1;durP2;ratioP2;P2;SDS_P1;SDS_P2;PMS_P1;PMS_P2;Temp;Humidity;BMP_temperature;BMP_pressure;BME280_temperature;BME280_humidity;BME280_pressure;Samples;Min_cycle;Max_cycle;Signal;HPM_P1;HPM_P2
2023/01/21 00:01:12;;;;;;;15.90;5.60;;;;;;;-0.95;100.00;99142.39;106295;1275;1003473;-70
2023/01/21 00:03:41;;;;;;;15.50;5.40;;;;;;;-0.97;100.00;99133.48;107075;1275;24363;-69
2023/01/21 00:06:15;;;;;;;16.90;5.90;;;;;;;-0.98;100.00;99125.45;106899;1274;22530;-70
2023/01/21 00:08:43;;;;;;;15.20;5.80;;;;;;;-0.98;100.00;99120.67;107113;1275;22554;-70
2023/01/21 00:11:13;;;;;;;17.20;6.80;;;;;;;-0.98;100.00;99119.44;107085;1275;22549;-70
2023/01/21 00:13:41;;;;;;;14.30;6.00;;;;;;;-0.99;100.00;99112.45;107056;1275;24163;-70
2023/01/21 00:16:09;;;;;;;12.40;4.90;;;;;;;-1.00;100.00;99117.67;107045;1275;22528;-70
2023/01/21 00:18:36;;;;;;;14.70;5.20;;;;;;;-1.01;100.00;99120.36;106977;1275;24234;-70
2023/01/21 00:21:04;;;;;;;11.90;5.50;;;;;;;-1.01;100.00;99120.40;106328;1260;1003727;-70
2023/01/21 00:23:31;;;;;;;14.40;5.30;;;;;;;-1.02;100.00;99116.02;107062;1275;24215;-70
2023/01/21 00:26:00;;;;;;;10.20;4.80;;;;;;;-1.02;100.00;99113.05;106905;1270;24228;-69
2023/01/21 00:28:28;;;;;;;11.60;4.70;;;;;;;-1.04;100.00;99113.89;106941;1275;22770;-70
2023/01/21 00:30:58;;;;;;;15.20;6.00;;;;;;;-1.06;100.00;99115.48;106993;1275;22523;-71
2023/01/21 00:33:26;;;;;;;16.80;5.90;;;;;;;-1.08;100.00;99114.91;107037;1274;25644;-70
2023/01/21 00:35:58;;;;;;;12.00;4.80;;;;;;;-1.07;100.00;99112.23;107079;1270;24311;-69
2023/01/21 00:38:26;;;;;;;14.80;5.40;;;;;;;-1.09;100.00;99114.44;107104;1275;22624;-69
2023/01/21 00:41:01;;;;;;;12.70;5.30;;;;;;;-1.10;100.00;99113.33;107067;1275;22526;-69
2023/01/21 00:43:28;;;;;;;14.20;4.60;;;;;;;-1.11;100.00;99114.11;107112;1274;25460;-71
2023/01/21 00:45:56;;;;;;;11.60;4.40;;;;;;;-1.11;100.00;99110.76;106988;1275;25449;-72
2023/01/21 00:48:24;;;;;;;16.30;4.60;;;;;;;-1.12;100.00;99109.09;107013;1274;22779;-70
2023/01/21 00:50:54;;;;;;;12.20;4.30;;;;;;;-1.14;100.00;99108.45;106948;1256;22529;-71
2023/01/21 00:53:22;;;;;;;9.20;4.30;;;;;;;-1.15;100.00;99116.71;106991;1275;22552;-70
2023/01/21 00:55:49;;;;;;;13.40;4.90;;;;;;;-1.16;100.00;99114.13;107039;1275;22609;-72
2023/01/21 00:58:17;;;;;;;11.10;4.90;;;;;;;-1.16;100.00;99105.47;107026;1275;24221;-70
2023/01/21 01:00:45;;;;;;;13.70;4.90;;;;;;;-1.16;100.00;99110.77;107049;1275;22537;-69
2023/01/21 01:03:14;;;;;;;16.20;5.30;;;;;;;-1.17;100.00;99115.92;107043;1275;22527;-70
2023/01/21 01:05:42;;;;;;;11.10;4.30;;;;;;;-1.17;100.00;99119.86;107045;1275;25374;-70
2023/01/21 01:08:09;;;;;;;12.40;4.30;;;;;;;-1.18;100.00;99121.50;107020;1274;22527;-69
2023/01/21 01:10:36;;;;;;;15.20;5.30;;;;;;;-1.18;100.00;99120.11;106336;1274;1003726;-71
2023/01/21 01:13:04;;;;;;;11.50;4.70;;;;;;;-1.19;100.00;99118.23;107056;1275;25322;-70
2023/01/21 01:15:31;;;;;;;12.70;5.10;;;;;;;-1.20;100.00;99109.81;107006;1257;22531;-69
2023/01/21 01:18:00;;;;;;;13.20;4.60;;;;;;;-1.21;100.00;99111.83;107094;1274;22544;-68
2023/01/21 01:20:27;;;;;;;10.70;3.90;;;;;;;-1.22;100.00;99120.77;106967;1275;23247;-70
2023/01/21 01:22:54;;;;;;;15.60;4.70;;;;;;;-1.24;100.00;99117.88;106389;1274;1015447;-70
2023/01/21 01:25:22;;;;;;;9.30;4.00;;;;;;;-1.24;100.00;99116.86;107016;1274;22693;-71
2023/01/21 01:27:49;;;;;;;11.70;4.60;;;;;;;-1.24;100.00;99118.48;106936;1274;22526;-71
2023/01/21 01:30:17;;;;;;;14.90;4.70;;;;;;;-1.26;100.00;99111.54;106351;1275;1003795;-72
2023/01/21 01:32:44;;;;;;;13.80;5.00;;;;;;;-1.28;100.00;99110.98;106211;1275;1002598;-70
2023/01/21 01:35:12;;;;;;;12.10;5.00;;;;;;;-1.30;100.00;99109.38;107051;1274;25856;-70
2023/01/21 01:37:40;;;;;;;12.60;5.00;;;;;;;-1.30;100.00;99112.42;107031;1275;24168;-70
2023/01/21 01:40:10;;;;;;;16.00;4.80;;;;;;;-1.30;100.00;99112.20;106300;1274;1003512;-69
2023/01/21 01:42:39;;;;;;;15.00;4.90;;;;;;;-1.31;100.00;99118.98;107058;1275;22756;-69
2023/01/21 01:45:13;;;;;;;12.30;4.40;;;;;;;-1.35;100.00;99134.27;107040;1274;23896;-70
2023/01/21 01:47:44;;;;;;;10.30;4.20;;;;;;;-1.35;100.00;99149.84;106388;1275;1003040;-67
2023/01/21 01:50:13;;;;;;;13.30;4.20;;;;;;;-1.36;100.00;99154.70;107041;1275;22757;-69
2023/01/21 01:52:41;;;;;;;13.10;4.30;;;;;;;-1.37;100.00;99159.01;106229;1275;1003815;-71
2023/01/21 01:55:08;;;;;;;11.20;4.40;;;;;;;-1.37;100.00;99157.64;106996;1274;22524;-69
2023/01/21 01:57:38;;;;;;;9.50;4.10;;;;;;;-1.39;100.00;99161.48;107118;1275;25474;-70
2023/01/21 02:00:07;;;;;;;12.20;3.80;;;;;;;-1.41;100.00;99158.81;107038;1274;24304;-70
2023/01/21 02:02:39;;;;;;;14.20;4.60;;;;;;;-1.42;100.00;99153.79;107078;1274;22469;-69
2023/01/21 02:05:08;;;;;;;10.70;4.30;;;;;;;-1.44;100.00;99146.32;106989;1274;25243;-71
2023/01/21 02:07:39;;;;;;;10.30;4.20;;;;;;;-1.45;100.00;99154.16;107118;1275;22557;-70
2023/01/21 02:10:10;;;;;;;14.50;4.30;;;;;;;-1.46;100.00;99159.06;107070;1275;22793;-70
2023/01/21 02:12:38;;;;;;;10.50;3.70;;;;;;;-1.47;100.00;99166.74;106179;1275;1002996;-73
2023/01/21 02:15:06;;;;;;;11.50;4.10;;;;;;;-1.50;100.00;99168.85;107033;1274;22552;-75
2023/01/21 02:18:02;;;;;;;15.80;4.60;;;;;;;-1.51;100.00;99168.78;106283;1274;1002921;-72
2023/01/21 02:20:51;;;;;;;8.30;4.60;;;;;;;-1.53;100.00;99168.70;107097;1275;25390;-70
2023/01/21 02:23:37;;;;;;;11.80;3.80;;;;;;;-1.54;100.00;99172.67;107081;1275;25425;-69
2023/01/21 02:26:10;;;;;;;10.10;3.60;;;;;;;-1.55;100.00;99187.27;107123;1275;25437;-69
2023/01/21 02:28:59;;;;;;;7.60;3.50;;;;;;;-1.57;100.00;99206.64;107113;1274;23872;-70
2023/01/21 02:31:54;;;;;;;9.00;3.60;;;;;;;-1.57;100.00;99219.03;106277;1274;1002816;-68
2023/01/21 02:34:36;;;;;;;10.90;4.00;;;;;;;-1.58;100.00;99242.46;106374;1274;1003648;-69
2023/01/21 02:37:14;;;;;;;8.60;3.70;;;;;;;-1.60;100.00;99269.27;106332;1274;1003004;-70
2023/01/21 02:40:00;;;;;;;9.50;3.40;;;;;;;-1.60;100.00;99283.81;106918;1275;190351;-68
2023/01/21 02:42:46;;;;;;;9.30;3.70;;;;;;;-1.61;100.00;99285.30;107098;1275;24967;-69
2023/01/21 02:45:20;;;;;;;8.10;3.40;;;;;;;-1.63;100.00;99293.92;106259;1275;1003295;-69
2023/01/21 02:48:13;;;;;;;9.10;3.80;;;;;;;-1.64;100.00;99284.08;107107;1274;22536;-70
2023/01/21 02:50:49;;;;;;;11.50;4.30;;;;;;;-1.65;100.00;99271.97;107019;1275;25393;-69
2023/01/21 02:53:30;;;;;;;11.10;3.80;;;;;;;-1.66;100.00;99257.05;106320;1274;1003474;-68
2023/01/21 02:56:10;;;;;;;7.50;3.80;;;;;;;-1.68;100.00;99246.20;107053;1274;24251;-71
2023/01/21 02:58:44;;;;;;;8.90;3.40;;;;;;;-1.68;100.00;99244.28;107046;1274;24243;-69
2023/01/21 03:01:48;;;;;;;8.80;3.50;;;;;;;-1.68;100.00;99259.13;106976;1275;25403;-71
2023/01/21 03:04:38;;;;;;;5.60;3.30;;;;;;;-1.68;100.00;99288.45;106805;1275;22533;-70
2023/01/21 03:07:27;;;;;;;10.60;3.40;;;;;;;-1.68;100.00;99307.86;106975;1274;22546;-70
2023/01/21 03:09:59;;;;;;;12.70;3.80;;;;;;;-1.67;100.00;99314.88;106990;1275;22524;-69
2023/01/21 03:12:38;;;;;;;9.00;3.10;;;;;;;-1.66;100.00;99322.92;106314;1275;1003797;-68
2023/01/21 03:18:16;;;;;;;7.80;3.40;;;;;;;-1.65;100.00;99319.64;107062;1274;22667;-69
2023/01/21 03:20:58;;;;;;;8.50;3.50;;;;;;;-1.65;100.00;99326.23;107076;1274;25421;-69
2023/01/21 03:23:29;;;;;;;8.60;3.50;;;;;;;-1.65;100.00;99306.08;107022;1274;22621;-69
2023/01/21 03:25:57;;;;;;;8.70;3.40;;;;;;;-1.65;100.00;99292.98;107032;1275;22530;-70
2023/01/21 03:28:26;;;;;;;11.70;3.90;;;;;;;-1.64;100.00;99292.24;106942;1274;23894;-69
2023/01/21 03:31:00;;;;;;;9.00;3.50;;;;;;;-1.65;100.00;99282.21;107034;1275;22522;-70
2023/01/21 03:33:27;;;;;;;6.60;3.30;;;;;;;-1.65;100.00;99260.63;106965;1274;24260;-69
2023/01/21 03:35:55;;;;;;;8.40;3.80;;;;;;;-1.66;100.00;99245.69;106938;1275;25431;-70
2023/01/21 03:38:33;;;;;;;5.10;3.20;;;;;;;-1.67;100.00;99234.98;106145;1274;1002861;-70
2023/01/21 03:41:10;;;;;;;9.50;3.70;;;;;;;-1.69;100.00;99236.89;106999;1274;25351;-69
2023/01/21 03:43:37;;;;;;;8.10;4.10;;;;;;;-1.71;100.00;99273.10;107081;1274;25422;-70
2023/01/21 03:46:12;;;;;;;9.60;3.30;;;;;;;-1.71;100.00;99330.89;106245;1274;1003396;-69
2023/01/21 03:48:42;;;;;;;16.20;4.10;;;;;;;-1.70;100.00;99347.77;106392;1274;1003302;-70
2023/01/21 03:51:16;;;;;;;9.90;3.50;;;;;;;-1.67;100.00;99300.06;107096;1275;25547;-68
2023/01/21 03:53:43;;;;;;;5.30;3.00;;;;;;;-1.66;100.00;99301.20;107018;1274;22565;-70
2023/01/21 03:56:11;;;;;;;7.40;3.30;;;;;;;-1.66;100.00;99275.91;106298;1274;1003324;-70
2023/01/21 03:58:38;;;;;;;9.40;3.70;;;;;;;-1.66;100.00;99272.73;107002;1274;24829;-68
2023/01/21 04:01:06;;;;;;;11.80;4.60;;;;;;;-1.66;100.00;99254.19;106274;1274;1003302;-69
2023/01/21 04:03:33;;;;;;;7.70;3.60;;;;;;;-1.66;100.00;99230.11;106368;1274;1003367;-69
2023/01/21 04:06:01;;;;;;;8.10;3.90;;;;;;;-1.66;100.00;99230.33;106259;1274;1003064;-71
2023/01/21 04:08:29;;;;;;;10.80;4.60;;;;;;;-1.67;100.00;99255.16;107030;1275;22527;-70
2023/01/21 04:10:56;;;;;;;10.50;4.70;;;;;;;-1.68;100.00;99266.52;107062;1274;23918;-69
2023/01/21 04:13:24;;;;;;;12.10;4.60;;;;;;;-1.68;100.00;99268.13;106181;1274;1002894;-69
2023/01/21 04:15:51;;;;;;;14.70;4.30;;;;;;;-1.69;100.00;99288.30;107051;1274;22521;-69
2023/01/21 04:18:18;;;;;;;9.00;3.30;;;;;;;-1.68;100.00;99288.44;106938;1274;22535;-70
2023/01/21 04:20:45;;;;;;;10.80;4.00;;;;;;;-1.67;100.00;99312.39;107028;1274;22643;-69
2023/01/21 04:23:12;;;;;;;10.20;4.10;;;;;;;-1.65;100.00;99313.69;106990;1274;25370;-69
2023/01/21 04:25:40;;;;;;;9.60;3.90;;;;;;;-1.64;100.00;99275.76;107101;1274;24211;-68
2023/01/21 04:28:07;;;;;;;12.20;3.90;;;;;;;-1.63;100.00;99296.38;107039;1274;22526;-68
2023/01/21 04:30:34;;;;;;;5.90;3.40;;;;;;;-1.63;100.00;99270.21;106329;1274;1002804;-69
2023/01/21 04:33:01;;;;;;;6.40;3.20;;;;;;;-1.63;100.00;99270.42;107015;1274;25241;-71
2023/01/21 04:35:29;;;;;;;8.80;4.10;;;;;;;-1.64;100.00;99269.94;106330;1274;1003235;-71
2023/01/21 04:37:56;;;;;;;11.60;4.40;;;;;;;-1.64;100.00;99259.20;107032;1274;22589;-70
2023/01/21 04:40:23;;;;;;;8.00;4.10;;;;;;;-1.65;100.00;99253.20;106973;1274;25249;-69
2023/01/21 04:42:50;;;;;;;9.10;4.30;;;;;;;-1.66;100.00;99247.08;107003;1274;22591;-70
2023/01/21 04:45:18;;;;;;;14.10;3.80;;;;;;;-1.66;100.00;99251.55;107074;1274;22527;-70
2023/01/21 04:47:45;;;;;;;10.60;4.00;;;;;;;-1.67;100.00;99270.86;107116;1274;22760;-71
2023/01/21 04:50:13;;;;;;;10.10;4.00;;;;;;;-1.66;100.00;99272.95;107006;1274;24164;-69
2023/01/21 04:52:41;;;;;;;11.00;4.20;;;;;;;-1.66;100.00;99260.20;106284;1263;1003742;-69
2023/01/21 04:55:09;;;;;;;8.30;4.30;;;;;;;-1.66;100.00;99274.14;107153;1274;22524;-69
2023/01/21 04:57:36;;;;;;;10.40;4.10;;;;;;;-1.65;100.00;99286.31;107068;1275;24386;-69
2023/01/21 05:00:04;;;;;;;12.50;4.30;;;;;;;-1.64;100.00;99286.40;107013;1274;22520;-70
2023/01/21 05:02:32;;;;;;;11.20;4.60;;;;;;;-1.64;100.00;99293.48;107103;1274;22519;-72
2023/01/21 05:04:59;;;;;;;11.30;4.10;;;;;;;-1.64;100.00;99309.86;107052;1274;22650;-69
2023/01/21 05:07:27;;;;;;;10.50;4.60;;;;;;;-1.63;100.00;99311.61;106265;1274;1003476;-69
2023/01/21 05:09:54;;;;;;;12.80;3.80;;;;;;;-1.62;100.00;99304.65;107083;1274;22534;-70
2023/01/21 05:12:21;;;;;;;8.60;4.20;;;;;;;-1.62;100.00;99321.19;106261;1274;1003163;-69
2023/01/21 05:14:52;;;;;;;16.40;5.80;;;;;;;-1.60;100.00;99312.27;106980;1274;22529;-69
2023/01/21 05:17:20;;;;;;;12.00;4.80;;;;;;;-1.59;100.00;99330.58;106244;1274;1015797;-71
2023/01/21 05:19:49;;;;;;;9.30;4.20;;;;;;;-1.59;100.00;99331.23;106244;1274;1003662;-71
2023/01/21 05:22:17;;;;;;;11.70;4.40;;;;;;;-1.58;100.00;99331.17;107075;1274;22532;-72
2023/01/21 05:24:44;;;;;;;14.20;4.80;;;;;;;-1.57;100.00;99334.98;107000;1274;22470;-70
2023/01/21 05:27:11;;;;;;;10.40;4.20;;;;;;;-1.56;100.00;99332.83;107031;1274;25932;-70
2023/01/21 05:29:39;;;;;;;11.10;4.40;;;;;;;-1.56;100.00;99340.38;107013;1275;22534;-70
2023/01/21 05:32:06;;;;;;;11.10;4.90;;;;;;;-1.55;100.00;99344.02;107006;1274;22750;-70
2023/01/21 05:34:33;;;;;;;13.10;4.70;;;;;;;-1.54;100.00;99351.23;106207;1274;1003599;-70
2023/01/21 05:37:01;;;;;;;11.60;4.30;;;;;;;-1.52;100.00;99370.72;107033;1275;22550;-69
2023/01/21 05:39:28;;;;;;;12.30;4.00;;;;;;;-1.50;100.00;99363.52;106341;1274;1003797;-70
2023/01/21 05:41:55;;;;;;;10.60;4.10;;;;;;;-1.49;100.00;99367.47;107011;1274;25356;-69
2023/01/21 05:44:23;;;;;;;11.80;4.50;;;;;;;-1.46;100.00;99357.91;107085;1274;22823;-69
2023/01/21 05:46:50;;;;;;;9.60;4.60;;;;;;;-1.44;100.00;99342.94;106952;1275;22715;-69
2023/01/21 05:49:18;;;;;;;12.10;4.90;;;;;;;-1.44;100.00;99335.65;107143;1274;22546;-70
2023/01/21 05:51:45;;;;;;;15.00;4.90;;;;;;;-1.43;100.00;99344.05;107037;1274;25362;-70
2023/01/21 05:54:13;;;;;;;11.00;4.20;;;;;;;-1.42;100.00;99348.39;107062;1274;22774;-70
2023/01/21 05:56:40;;;;;;;13.50;5.00;;;;;;;-1.41;100.00;99358.08;107111;1274;22671;-69
2023/01/21 05:59:08;;;;;;;14.30;5.10;;;;;;;-1.41;100.00;99349.92;107030;1275;22526;-69
2023/01/21 06:01:35;;;;;;;13.20;5.00;;;;;;;-1.40;100.00;99340.65;106221;1257;1002967;-70
2023/01/21 06:04:03;;;;;;;12.20;5.00;;;;;;;-1.38;100.00;99335.20;107036;1274;22732;-71
2023/01/21 06:06:30;;;;;;;13.80;5.60;;;;;;;-1.36;100.00;99337.00;107027;1275;22531;-71
2023/01/21 06:08:57;;;;;;;14.70;5.30;;;;;;;-1.34;100.00;99326.92;106461;1274;1002890;-71
2023/01/21 06:11:31;;;;;;;15.90;6.20;;;;;;;-1.30;100.00;99323.48;107018;1274;25432;-69
2023/01/21 06:13:59;;;;;;;19.30;5.40;;;;;;;-1.26;100.00;99315.27;107079;1275;22700;-69
2023/01/21 06:16:26;;;;;;;14.30;5.30;;;;;;;-1.24;100.00;99308.00;106947;1274;22639;-69
2023/01/21 06:18:56;;;;;;;14.00;5.40;;;;;;;-1.22;100.00;99308.24;106382;1274;1003363;-70
2023/01/21 06:21:23;;;;;;;18.00;5.80;;;;;;;-1.22;100.00;99308.73;107092;1274;22547;-69
2023/01/21 06:23:50;;;;;;;14.10;5.60;;;;;;;-1.20;100.00;99307.39;107013;1274;22527;-68
2023/01/21 06:44:36;;;;;;;21.80;6.30;;;;;;;-0.71;100.00;99271.15;104354;1295;558574;-77
2023/01/21 06:47:03;;;;;;;17.60;6.30;;;;;;;-0.58;100.00;99279.30;105701;1280;232191;-79
2023/01/21 06:49:31;;;;;;;16.00;6.30;;;;;;;-0.56;100.00;99299.18;105975;1266;22547;-75
2023/01/21 06:51:58;;;;;;;20.80;8.00;;;;;;;-0.58;100.00;99301.45;105163;1285;1003589;-76
2023/01/21 06:54:26;;;;;;;22.30;8.50;;;;;;;-0.61;100.00;99303.95;106026;1284;22567;-73
2023/01/21 06:56:56;;;;;;;15.50;6.30;;;;;;;-0.63;100.00;99296.87;106197;1267;25479;-73
2023/01/21 06:59:23;;;;;;;23.60;7.20;;;;;;;-0.66;100.00;99296.96;105390;1281;1003202;-72
2023/01/21 07:01:51;;;;;;;18.90;6.50;;;;;;;-0.67;100.00;99310.15;106119;1279;22536;-73
2023/01/21 07:04:18;;;;;;;22.60;6.80;;;;;;;-0.68;100.00;99314.43;106069;1279;24292;-74
2023/01/21 07:06:46;;;;;;;14.00;5.80;;;;;;;-0.69;100.00;99321.77;106036;1285;22558;-73
2023/01/21 07:09:14;;;;;;;16.00;5.70;;;;;;;-0.70;100.00;99319.91;106141;1283;22984;-73
2023/01/21 07:11:41;;;;;;;18.50;6.10;;;;;;;-0.72;100.00;99340.05;105924;1273;1003001;-74
2023/01/21 07:14:09;;;;;;;14.00;5.90;;;;;;;-0.74;100.00;99351.35;106662;1273;22649;-74
2023/01/21 07:16:36;;;;;;;19.30;6.80;;;;;;;-0.74;100.00;99364.27;106661;1273;25259;-75
2023/01/21 07:19:05;;;;;;;14.40;6.20;;;;;;;-0.74;100.00;99378.60;106798;1272;22546;-73
2023/01/21 07:21:33;;;;;;;14.20;5.70;;;;;;;-0.72;100.00;99382.88;107018;1275;24381;-74
2023/01/21 07:24:00;;;;;;;13.90;7.00;;;;;;;-0.70;100.00;99385.59;107168;1273;22704;-73
2023/01/21 07:26:28;;;;;;;15.00;6.00;;;;;;;-0.69;100.00;99401.79;106766;1269;24378;-73
2023/01/21 07:28:55;;;;;;;18.00;6.20;;;;;;;-0.69;100.00;99399.14;107008;1275;24205;-74
2023/01/21 07:31:23;;;;;;;16.50;6.40;;;;;;;-0.70;100.00;99401.99;107056;1269;22530;-74
2023/01/21 07:33:52;;;;;;;16.80;6.80;;;;;;;-0.69;100.00;99407.12;106182;1268;1003458;-74
2023/01/21 07:36:19;;;;;;;16.10;5.60;;;;;;;-0.69;100.00;99410.50;106868;1275;22529;-75
2023/01/21 07:38:46;;;;;;;18.00;7.00;;;;;;;-0.70;100.00;99421.70;106738;1273;23957;-74
2023/01/21 07:41:14;;;;;;;15.80;6.50;;;;;;;-0.70;100.00;99418.46;107000;1273;22538;-74
2023/01/21 07:43:41;;;;;;;16.70;6.50;;;;;;;-0.67;100.00;99418.96;107006;1270;24259;-75
2023/01/21 07:46:08;;;;;;;15.20;6.20;;;;;;;-0.65;100.00;99425.23;106902;1269;22533;-75
2023/01/21 07:48:36;;;;;;;16.10;6.40;;;;;;;-0.62;100.00;99435.39;106086;1270;1003612;-74
2023/01/21 07:51:04;;;;;;;14.00;6.70;;;;;;;-0.59;100.00;99438.20;106925;1273;22530;-76
2023/01/21 07:53:32;;;;;;;14.30;6.20;;;;;;;-0.54;100.00;99436.77;106941;1275;23095;-73
2023/01/21 07:56:06;;;;;;;17.00;6.60;;;;;;;-0.47;100.00;99428.14;106628;1276;25306;-75
2023/01/21 07:58:33;;;;;;;17.20;6.50;;;;;;;-0.43;100.00;99432.34;106833;1268;25102;-73
2023/01/21 08:01:04;;;;;;;21.70;7.30;;;;;;;-0.40;100.00;99432.31;107116;1271;1003456;-75
2023/01/21 08:03:38;;;;;;;16.70;6.40;;;;;;;-0.35;100.00;99437.68;106070;1270;1003813;-75
2023/01/21 08:06:05;;;;;;;14.20;6.10;;;;;;;-0.35;100.00;99423.83;106912;1274;22527;-73
2023/01/21 08:08:33;;;;;;;16.20;5.90;;;;;;;-0.34;100.00;99426.77;107125;1275;23006;-75
2023/01/21 08:11:00;;;;;;;15.60;6.30;;;;;;;-0.33;100.00;99421.17;107128;1270;22841;-74
2023/01/21 08:13:27;;;;;;;17.20;6.90;;;;;;;-0.30;100.00;99415.86;107089;1254;22523;-76
2023/01/21 08:15:55;;;;;;;14.00;6.00;;;;;;;-0.29;100.00;99413.43;107092;1270;22618;-77
2023/01/21 08:18:23;;;;;;;15.40;6.10;;;;;;;-0.26;100.00;99410.61;107110;1269;22564;-72
2023/01/21 08:20:54;;;;;;;14.40;6.10;;;;;;;-0.21;100.00;99409.67;107045;1269;24281;-75
2023/01/21 08:23:22;;;;;;;17.40;6.30;;;;;;;-0.19;100.00;99407.70;106279;1269;1003129;-73
2023/01/21 08:25:49;;;;;;;17.40;7.30;;;;;;;-0.14;100.00;99406.63;106841;1267;25293;-70
2023/01/21 08:28:16;;;;;;;13.40;5.60;;;;;;;-0.08;100.00;99412.04;106700;1269;22529;-71
2023/01/21 08:30:44;;;;;;;14.50;5.60;;;;;;;-0.06;100.00;99412.08;106110;1269;1003474;-70
2023/01/21 08:33:11;;;;;;;16.10;6.00;;;;;;;-0.05;100.00;99423.15;106869;1273;25293;-68
2023/01/21 08:35:38;;;;;;;14.20;6.10;;;;;;;-0.03;100.00;99435.23;105967;1270;1003656;-70
2023/01/21 08:38:06;;;;;;;15.10;6.00;;;;;;;0.01;100.00;99437.95;106840;1267;24222;-71
2023/01/21 08:40:33;;;;;;;16.00;6.10;;;;;;;0.04;100.00;99441.42;106123;1275;1002916;-71
2023/01/21 08:43:01;;;;;;;13.30;5.40;;;;;;;0.10;100.00;99448.77;106953;1275;25301;-70
2023/01/21 08:45:29;;;;;;;14.80;6.00;;;;;;;0.18;100.00;99456.49;106918;1269;24229;-70
2023/01/21 08:47:56;;;;;;;13.20;5.50;;;;;;;0.24;100.00;99457.06;106681;1270;25408;-73
2023/01/21 08:50:23;;;;;;;16.70;5.80;;;;;;;0.30;100.00;99464.20;107031;1267;22644;-71
2023/01/21 08:52:57;;;;;;;13.70;5.90;;;;;;;0.35;100.00;99459.36;106983;1269;22538;-71
2023/01/21 08:55:27;;;;;;;14.90;5.50;;;;;;;0.39;100.00;99454.09;107918;1270;22541;-70
2023/01/21 08:57:54;;;;;;;18.30;6.40;;;;;;;0.41;100.00;99450.95;106803;1272;25350;-70
2023/01/21 09:00:24;;;;;;;14.80;5.60;;;;;;;0.44;100.00;99453.02;106873;1275;22537;-74
2023/01/21 09:02:51;;;;;;;15.50;6.30;;;;;;;0.50;100.00;99447.56;106887;1267;22538;-73
2023/01/21 09:05:19;;;;;;;18.30;6.70;;;;;;;0.58;100.00;99453.89;106141;1267;1002869;-72
2023/01/21 09:07:46;;;;;;;12.40;5.60;;;;;;;0.67;100.00;99447.46;106912;1267;22543;-72
2023/01/21 09:10:59;;;;;;;15.50;5.70;;;;;;;0.73;100.00;99454.84;106907;1269;25249;-72
2023/01/21 09:13:05;;;;;;;15.50;6.20;;;;;;;0.82;100.00;99463.70;106928;1253;25817;-73
2023/01/21 09:15:42;;;;;;;16.60;6.20;;;;;;;0.90;100.00;99465.37;106271;1270;1003467;-73
2023/01/21 09:18:10;;;;;;;16.00;7.10;;;;;;;1.01;100.00;99477.11;106712;1275;23116;-74
2023/01/21 09:20:38;;;;;;;16.00;6.90;;;;;;;1.10;100.00;99488.42;106957;1267;24624;-73
2023/01/21 09:23:22;;;;;;;13.90;5.70;;;;;;;1.17;100.00;99491.79;106922;1269;25332;-71
2023/01/21 09:26:05;;;;;;;19.30;6.40;;;;;;;1.23;100.00;99495.16;106956;1275;24150;-76
2023/01/21 09:28:37;;;;;;;16.10;6.20;;;;;;;1.27;100.00;99505.45;106802;1267;22541;-71
2023/01/21 09:31:10;;;;;;;14.30;6.20;;;;;;;1.35;100.00;99513.72;106904;1270;24224;-73
2023/01/21 09:33:43;;;;;;;13.40;5.70;;;;;;;1.42;100.00;99518.13;106941;1275;22587;-70
2023/01/21 09:36:12;;;;;;;15.80;6.30;;;;;;;1.46;100.00;99519.98;106813;1272;22527;-70
2023/01/21 09:38:43;;;;;;;16.00;6.90;;;;;;;1.53;100.00;99525.61;107042;1275;25494;-70
2023/01/21 09:41:22;;;;;;;14.80;6.00;;;;;;;1.64;100.00;99531.06;106990;1275;22532;-72
2023/01/21 09:44:13;;;;;;;16.30;6.00;;;;;;;1.76;100.00;99529.80;107016;1263;23104;-72
2023/01/21 09:46:41;;;;;;;15.50;5.90;;;;;;;1.92;100.00;99529.15;107079;1269;22605;-71
2023/01/21 09:49:32;;;;;;;18.60;7.30;;;;;;;2.10;100.00;99534.92;107074;1267;22519;-74
2023/01/21 09:52:42;;;;;;;12.80;4.90;;;;;;;2.33;100.00;99533.84;107078;1267;22583;-73
2023/01/21 09:55:22;;;;;;;17.20;6.20;;;;;;;2.46;100.00;99540.42;106770;1270;25243;-73
2023/01/21 09:58:21;;;;;;;15.60;5.90;;;;;;;2.52;100.00;99553.40;106384;1267;1003277;-74
2023/01/21 10:00:59;;;;;;;14.60;6.00;;;;;;;2.57;100.00;99564.70;106822;1267;23373;-70
2023/01/21 10:03:56;;;;;;;13.30;5.50;;;;;;;2.65;100.00;99583.31;106828;1268;23839;-70
2023/01/21 10:06:34;;;;;;;14.50;6.50;;;;;;;2.76;100.00;99596.25;106881;1270;25351;-71
2023/01/21 10:09:06;;;;;;;14.50;6.40;;;;;;;2.78;100.00;99611.36;106199;1267;1003338;-70
2023/01/21 10:11:47;;;;;;;14.90;6.60;;;;;;;2.85;100.00;99617.91;107042;1267;24047;-74
2023/01/21 10:14:34;;;;;;;15.10;7.20;;;;;;;2.97;100.00;99634.85;107038;1275;25421;-70
2023/01/21 10:17:08;;;;;;;19.90;8.10;;;;;;;3.16;100.00;99638.58;106283;1275;1003603;-70
2023/01/21 10:19:43;;;;;;;15.60;6.70;;;;;;;3.24;100.00;99636.77;106941;1275;25441;-72
2023/01/21 10:22:13;;;;;;;16.20;6.70;;;;;;;3.23;100.00;99652.87;106931;1267;25236;-72
2023/01/21 10:24:47;;;;;;;15.90;6.90;;;;;;;3.23;100.00;99666.29;107115;1269;22831;-71
2023/01/21 10:27:19;;;;;;;15.10;6.50;;;;;;;3.22;100.00;99683.10;106943;1275;23666;-73
2023/01/21 10:29:54;;;;;;;16.10;6.90;;;;;;;3.19;100.00;99699.70;106946;1269;21814;-72
2023/01/21 10:32:24;;;;;;;15.00;6.30;;;;;;;3.22;100.00;99705.33;106993;1270;22534;-73
2023/01/21 10:34:53;;;;;;;17.90;7.20;;;;;;;3.28;100.00;99708.63;107214;1269;22586;-75
2023/01/21 10:37:33;;;;;;;19.20;7.40;;;;;;;3.38;100.00;99718.23;107117;1275;1003269;-74
2023/01/21 10:53:11;;;;;;;20.60;7.10;;;;;;;4.76;100.00;99768.58;105174;1283;558432;-75
2023/01/21 10:55:47;;;;;;;17.20;6.40;;;;;;;5.11;100.00;99791.15;106518;1288;197710;-75
2023/01/21 10:58:37;;;;;;;13.00;6.60;;;;;;;5.09;100.00;99828.88;106666;1285;25323;-75
2023/01/21 11:01:12;;;;;;;12.40;5.80;;;;;;;4.95;100.00;99875.09;106766;1286;22540;-74
2023/01/21 11:03:45;;;;;;;16.20;6.80;;;;;;;4.84;100.00;99902.38;106695;1286;24269;-74
2023/01/21 11:06:14;;;;;;;23.30;7.40;;;;;;;4.80;100.00;99928.51;106743;1282;22656;-75
2023/01/21 11:08:44;;;;;;;17.10;7.00;;;;;;;4.80;100.00;99944.38;106804;1278;22534;-74
2023/01/21 11:11:11;;;;;;;18.50;6.50;;;;;;;4.85;100.00;99954.77;106401;1273;1003706;-74
2023/01/21 11:13:40;;;;;;;15.70;6.10;;;;;;;4.94;100.00;99949.55;106318;1280;1002640;-77
2023/01/21 11:16:07;;;;;;;16.50;6.70;;;;;;;5.02;100.00;99956.55;107148;1273;26512;-73
2023/01/21 11:18:41;;;;;;;14.00;6.60;;;;;;;5.03;100.00;99965.91;107088;1280;22477;-75
2023/01/21 11:21:08;;;;;;;20.00;8.10;;;;;;;5.12;100.00;99970.48;107122;1278;24208;-73
2023/01/21 11:23:38;;;;;;;16.00;6.60;;;;;;;5.19;100.00;99985.58;106317;1273;1003412;-74
2023/01/21 11:26:15;;;;;;;14.10;6.30;;;;;;;5.18;100.00;100009.37;106856;1277;24213;-73
2023/01/21 11:28:44;;;;;;;14.30;6.10;;;;;;;5.17;100.00;100027.17;106977;1278;25438;-74
2023/01/21 11:31:14;;;;;;;14.90;6.60;;;;;;;5.21;100.00;100033.59;107121;1275;24258;-75
2023/01/21 11:33:41;;;;;;;15.60;6.50;;;;;;;5.32;100.00;100036.76;107267;1273;24166;-74
2023/01/21 11:36:16;;;;;;;14.30;6.20;;;;;;;5.41;100.00;100042.94;107195;1275;22551;-74
2023/01/21 11:38:49;;;;;;;18.40;6.40;;;;;;;5.42;100.00;100062.51;107166;1276;22532;-73
2023/01/21 11:41:20;;;;;;;19.00;6.00;;;;;;;5.39;100.00;100072.81;106382;1276;1003449;-74
2023/01/21 11:43:50;;;;;;;19.90;7.50;;;;;;;5.38;100.00;100077.20;107191;1275;22909;-73
2023/01/21 11:46:24;;;;;;;19.00;6.60;;;;;;;5.41;100.00;100083.52;107248;1273;24330;-74
2023/01/21 11:48:56;;;;;;;17.40;7.40;;;;;;;5.43;100.00;100088.66;107162;1276;22563;-74
2023/01/21 11:51:24;;;;;;;15.10;5.90;;;;;;;5.45;100.00;100093.89;107206;1280;22580;-73
2023/01/21 11:54:15;;;;;;;14.30;6.10;;;;;;;5.43;100.00;100107.31;107269;1280;22467;-74
2023/01/21 11:56:58;;;;;;;20.90;6.60;;;;;;;5.44;100.00;100116.98;107348;1280;22571;-74
2023/01/21 11:59:52;;;;;;;20.20;7.00;;;;;;;5.40;100.00;100128.79;107169;1280;22561;-75
2023/01/21 12:02:29;;;;;;;20.40;8.20;;;;;;;5.39;100.00;100145.02;107186;1281;26519;-74